createdAt,value
2023-02-13T00:01:11.404Z,52.28
2023-02-13T00:03:38.236Z,55.45
2023-02-13T00:06:05.067Z,53.35
2023-02-13T00:08:31.804Z,56.67
2023-02-13T00:10:58.911Z,51.85
2023-02-13T00:13:25.814Z,50.55
2023-02-13T00:15:59.762Z,53.92
2023-02-13T00:21:00.566Z,50.78
2023-02-13T00:23:27.358Z,45.97
2023-02-13T00:25:54.035Z,45.55
2023-02-13T00:28:20.751Z,45.78
2023-02-13T00:30:47.583Z,41.20
2023-02-13T00:33:14.366Z,42.40
2023-02-13T00:35:41.061Z,42.65
2023-02-13T00:38:07.722Z,39.50
2023-02-13T00:40:34.492Z,35.97
2023-02-13T00:43:01.183Z,37.65
2023-02-13T00:45:27.841Z,40.72
2023-02-13T00:47:54.530Z,40.80
2023-02-13T00:50:21.198Z,43.70
2023-02-13T00:52:47.875Z,38.53
2023-02-13T00:55:14.576Z,42.47
2023-02-13T00:57:41.242Z,37.75
2023-02-13T01:00:08.565Z,42.33
2023-02-13T01:02:36.177Z,41.55
2023-02-13T01:05:03.237Z,39.03
2023-02-13T01:07:29.942Z,42.75
2023-02-13T01:09:56.662Z,34.53
2023-02-13T01:12:23.338Z,36.17
2023-02-13T01:14:50.093Z,34.28
2023-02-13T01:17:16.798Z,39.20
2023-02-13T01:19:43.489Z,34.03
2023-02-13T01:22:10.189Z,36.42
2023-02-13T01:24:36.914Z,38.28
2023-02-13T01:27:03.690Z,33.80
2023-02-13T01:29:30.402Z,34.10
2023-02-13T01:31:57.174Z,33.15
2023-02-13T01:34:23.968Z,33.30
2023-02-13T01:36:50.684Z,29.00
2023-02-13T01:39:17.327Z,33.38
2023-02-13T01:41:44.021Z,40.58
2023-02-13T01:44:48.915Z,33.95
2023-02-13T01:47:45.606Z,33.53
2023-02-13T01:50:24.258Z,29.05
2023-02-13T01:53:15.575Z,27.45
2023-02-13T01:56:15.677Z,30.30
2023-02-13T01:58:43.251Z,36.00
2023-02-13T02:01:09.998Z,29.45
2023-02-13T02:04:00.934Z,28.85
2023-02-13T02:06:29.876Z,31.27
2023-02-13T02:08:58.788Z,27.85
2023-02-13T02:11:37.159Z,30.92
2023-02-13T02:14:03.962Z,29.05
2023-02-13T02:16:30.614Z,30.60
2023-02-13T02:18:57.356Z,31.33
2023-02-13T02:21:44.174Z,28.52
2023-02-13T02:24:37.655Z,27.90
2023-02-13T02:27:47.163Z,27.73
2023-02-13T02:30:58.771Z,30.63
2023-02-13T02:33:34.434Z,29.48
2023-02-13T02:36:36.704Z,28.05
2023-02-13T02:39:06.078Z,29.52
2023-02-13T02:41:42.679Z,31.60
2023-02-13T02:44:21.815Z,30.20
2023-02-13T02:47:27.595Z,31.98
2023-02-13T02:50:20.483Z,30.27
2023-02-13T02:53:06.592Z,36.20
2023-02-13T02:56:00.923Z,35.40
2023-02-13T02:58:54.785Z,28.90
2023-02-13T03:01:58.435Z,30.50
2023-02-13T03:04:51.530Z,30.52
2023-02-13T03:07:19.067Z,28.60
2023-02-13T03:10:18.614Z,35.53
2023-02-13T03:13:10.470Z,31.50
2023-02-13T03:15:59.049Z,30.60
2023-02-13T03:18:44.310Z,30.08
2023-02-13T03:21:36.254Z,31.70
2023-02-13T03:24:53.242Z,30.80
2023-02-13T03:28:03.582Z,31.40
2023-02-13T03:30:45.075Z,32.95
2023-02-13T03:33:14.666Z,35.05
2023-02-13T03:36:29.287Z,37.50
2023-02-13T03:39:09.428Z,32.33
2023-02-13T03:41:41.973Z,35.33
2023-02-13T03:44:18.600Z,34.03
2023-02-13T03:46:47.667Z,31.02
2023-02-13T03:50:00.487Z,34.30
2023-02-13T03:52:42.731Z,32.72
2023-02-13T03:55:31.900Z,35.92
2023-02-13T03:58:20.940Z,36.30
2023-02-13T04:00:51.271Z,31.55
2023-02-13T04:03:47.286Z,33.13
2023-02-13T04:06:19.777Z,34.38
2023-02-13T04:08:46.486Z,29.30
2023-02-13T04:11:22.148Z,30.65
2023-02-13T04:13:52.621Z,37.00
2023-02-13T04:16:30.082Z,29.98
2023-02-13T04:18:56.812Z,33.15
2023-02-13T04:21:23.570Z,34.28
2023-02-13T04:23:50.224Z,36.28
2023-02-13T04:26:18.376Z,34.47
2023-02-13T04:28:45.064Z,32.13
2023-02-13T04:31:11.869Z,32.10
2023-02-13T04:33:38.683Z,37.80
2023-02-13T04:36:05.740Z,32.90
2023-02-13T04:38:32.445Z,35.00
2023-02-13T04:40:59.454Z,35.75
2023-02-13T04:43:26.343Z,35.40
2023-02-13T04:45:53.054Z,31.48
2023-02-13T04:48:19.775Z,31.45
2023-02-13T04:50:47.810Z,33.67
2023-02-13T04:53:14.463Z,35.13
2023-02-13T04:55:41.270Z,33.83
2023-02-13T04:58:08.024Z,33.08
2023-02-13T05:00:34.683Z,33.67
2023-02-13T05:03:05.311Z,31.45
2023-02-13T05:05:32.047Z,33.38
2023-02-13T05:07:58.757Z,33.08
2023-02-13T05:10:25.463Z,31.27
2023-02-13T05:12:52.196Z,34.75
2023-02-13T05:15:18.975Z,32.05
2023-02-13T05:17:46.213Z,32.13
2023-02-13T05:20:13.952Z,32.08
2023-02-13T05:23:03.642Z,30.83
2023-02-13T05:25:30.499Z,33.47
2023-02-13T05:27:57.256Z,38.30
2023-02-13T05:30:24.047Z,32.20
2023-02-13T05:32:55.011Z,32.15
2023-02-13T05:35:25.588Z,33.53
2023-02-13T05:37:52.407Z,29.60
2023-02-13T05:40:19.352Z,35.20
2023-02-13T05:42:46.287Z,33.13
2023-02-13T05:45:13.122Z,31.55
2023-02-13T05:47:39.925Z,31.92
2023-02-13T05:50:07.431Z,36.55
2023-02-13T05:52:34.150Z,34.70
2023-02-13T05:55:00.895Z,37.83
2023-02-13T05:57:27.562Z,28.15
2023-02-13T05:59:54.266Z,33.72
2023-02-13T06:02:20.973Z,32.40
2023-02-13T06:04:47.706Z,32.25
2023-02-13T06:07:14.369Z,36.85
2023-02-13T06:09:41.165Z,37.03
2023-02-13T06:12:07.907Z,33.38
2023-02-13T06:14:34.627Z,35.88
2023-02-13T06:17:01.754Z,37.10
2023-02-13T06:19:28.492Z,37.15
2023-02-13T06:21:55.364Z,41.13
2023-02-13T06:24:22.084Z,40.75
2023-02-13T06:26:48.922Z,42.92
2023-02-13T06:29:15.631Z,37.65
2023-02-13T06:31:42.307Z,35.03
2023-02-13T06:34:09.271Z,39.38
2023-02-13T06:36:37.704Z,40.22
2023-02-13T06:39:04.743Z,42.35
2023-02-13T06:41:31.458Z,39.10
2023-02-13T06:43:58.178Z,36.65
2023-02-13T06:46:24.896Z,34.38
2023-02-13T06:48:51.594Z,36.78
2023-02-13T06:51:18.315Z,38.22
2023-02-13T06:53:45.006Z,35.95
2023-02-13T06:56:11.687Z,43.28
2023-02-13T06:58:40.050Z,35.72
2023-02-13T07:01:07.100Z,41.83
2023-02-13T07:03:33.847Z,35.35
2023-02-13T07:06:00.563Z,43.17
2023-02-13T07:08:27.567Z,36.15
2023-02-13T07:10:54.466Z,39.15
2023-02-13T07:13:21.162Z,40.42
2023-02-13T07:15:47.943Z,36.50
2023-02-13T07:18:14.710Z,40.75
2023-02-13T07:20:41.423Z,42.15
2023-02-13T07:23:08.230Z,41.13
2023-02-13T07:25:35.169Z,37.65
2023-02-13T07:28:03.663Z,35.78
2023-02-13T07:30:31.439Z,41.72
2023-02-13T07:33:00.467Z,39.88
2023-02-13T07:35:27.253Z,44.13
2023-02-13T07:37:55.098Z,45.55
2023-02-13T07:40:21.953Z,45.88
2023-02-13T07:42:48.727Z,41.80
2023-02-13T07:45:16.096Z,36.85
2023-02-13T07:47:43.004Z,37.38
2023-02-13T07:50:10.095Z,39.85
2023-02-13T07:52:39.927Z,41.35
2023-02-13T07:55:07.075Z,47.05
2023-02-13T07:57:33.966Z,43.65
2023-02-13T08:00:00.788Z,52.00
2023-02-13T08:02:27.487Z,50.20
2023-02-13T08:04:54.391Z,47.83
2023-02-13T08:07:21.270Z,42.15
2023-02-13T08:10:06.732Z,41.28
2023-02-13T08:12:34.158Z,44.28
2023-02-13T08:15:00.916Z,43.03
2023-02-13T08:17:27.645Z,45.42
2023-02-13T08:19:55.029Z,47.38
2023-02-13T08:22:21.716Z,50.25
2023-02-13T08:24:48.423Z,41.30
2023-02-13T08:27:15.384Z,46.97
2023-02-13T08:29:42.094Z,50.42
2023-02-13T08:32:09.197Z,47.15
2023-02-13T08:34:35.945Z,47.15
2023-02-13T08:37:09.437Z,54.80
2023-02-13T08:39:36.195Z,52.58
2023-02-13T08:42:02.970Z,51.70
2023-02-13T08:44:29.727Z,57.88
2023-02-13T08:46:56.594Z,54.15
2023-02-13T08:49:23.548Z,52.15
2023-02-13T08:51:50.643Z,48.40
2023-02-13T08:54:17.407Z,49.97
2023-02-13T08:56:44.126Z,45.65
2023-02-13T08:59:10.929Z,46.95
2023-02-13T09:01:37.742Z,46.92
2023-02-13T09:04:04.589Z,45.05
2023-02-13T09:06:31.291Z,46.13
2023-02-13T09:08:58.246Z,45.22
2023-02-13T09:11:25.098Z,45.83
2023-02-13T09:13:54.848Z,46.25
2023-02-13T09:16:21.723Z,41.85
2023-02-13T09:18:49.376Z,40.47
2023-02-13T09:21:16.195Z,40.65
2023-02-13T09:23:42.973Z,35.90
2023-02-13T09:26:11.278Z,34.33
2023-02-13T09:28:38.162Z,36.92
2023-02-13T09:31:18.476Z,40.17
2023-02-13T09:33:45.808Z,34.40
2023-02-13T09:36:19.259Z,39.45
2023-02-13T09:38:47.389Z,35.75
2023-02-13T09:41:23.127Z,35.35
2023-02-13T09:43:50.992Z,38.17
2023-02-13T09:46:23.817Z,33.13
2023-02-13T09:48:52.086Z,30.60
2023-02-13T09:51:20.153Z,34.28
2023-02-13T09:54:01.091Z,33.03
2023-02-13T09:56:34.071Z,30.58
2023-02-13T09:59:03.659Z,26.90
2023-02-13T10:01:50.771Z,30.63
2023-02-13T10:04:31.813Z,27.80
2023-02-13T10:07:07.937Z,28.92
2023-02-13T10:09:53.414Z,28.23
2023-02-13T10:12:20.103Z,31.67
2023-02-13T10:15:02.309Z,28.95
2023-02-13T10:17:29.069Z,27.67
2023-02-13T10:19:59.254Z,28.80
2023-02-13T10:22:36.179Z,28.48
2023-02-13T10:25:18.210Z,25.05
2023-02-13T10:28:06.109Z,25.55
2023-02-13T10:30:36.872Z,32.78
2023-02-13T10:33:21.104Z,24.58
2023-02-13T10:35:50.681Z,28.45
2023-02-13T10:38:20.475Z,22.55
2023-02-13T10:41:24.351Z,25.45
2023-02-13T10:44:23.291Z,26.30
2023-02-13T10:47:31.858Z,26.05
2023-02-13T10:50:34.010Z,27.92
2023-02-13T10:53:26.179Z,26.00
2023-02-13T10:56:17.483Z,25.48
2023-02-13T10:58:54.112Z,27.10
2023-02-13T11:01:41.646Z,33.28
2023-02-13T11:04:10.499Z,24.92
2023-02-13T11:06:38.644Z,21.50
2023-02-13T11:09:07.228Z,26.83
2023-02-13T11:11:36.480Z,26.80
2023-02-13T11:14:11.768Z,23.38
2023-02-13T11:16:58.921Z,25.23
2023-02-13T11:19:39.992Z,24.20
2023-02-13T11:22:12.747Z,25.17
2023-02-13T11:24:50.055Z,25.42
2023-02-13T11:27:16.924Z,23.38
2023-02-13T11:29:57.298Z,22.77
2023-02-13T11:32:25.758Z,25.55
2023-02-13T11:34:54.714Z,29.35
2023-02-13T11:37:26.660Z,27.83
2023-02-13T11:39:55.319Z,24.45
2023-02-13T11:42:30.617Z,28.20
2023-02-13T11:45:23.445Z,28.10
2023-02-13T11:47:50.178Z,25.52
2023-02-13T11:50:34.924Z,24.35
2023-02-13T11:53:03.231Z,25.67
2023-02-13T11:55:30.087Z,27.48
2023-02-13T11:58:24.068Z,31.92
2023-02-13T12:00:51.042Z,27.02
2023-02-13T12:03:26.409Z,26.48
2023-02-13T12:06:20.880Z,26.00
2023-02-13T12:08:48.297Z,24.70
2023-02-13T12:11:49.671Z,22.17
2023-02-13T12:14:24.860Z,25.25
2023-02-13T12:17:08.670Z,30.08
2023-02-13T12:19:46.577Z,27.23
2023-02-13T12:22:15.586Z,27.27
2023-02-13T12:25:04.830Z,25.65
2023-02-13T12:27:50.420Z,31.23
2023-02-13T12:30:40.787Z,28.48
2023-02-13T12:33:30.556Z,24.15
2023-02-13T12:36:06.358Z,22.85
2023-02-13T12:38:50.582Z,24.05
2023-02-13T12:44:17.672Z,23.02
2023-02-13T12:46:52.940Z,30.05
2023-02-13T12:49:31.830Z,32.13
2023-02-13T12:52:10.482Z,30.77
2023-02-13T12:55:04.780Z,31.58
2023-02-13T12:57:53.261Z,28.05
2023-02-13T13:00:28.925Z,24.13
2023-02-13T13:03:21.846Z,31.00
2023-02-13T13:05:58.721Z,23.52
2023-02-13T13:08:49.250Z,21.90
2023-02-13T13:11:18.792Z,41.33
2023-02-13T13:14:01.819Z,26.73
2023-02-13T13:16:43.000Z,30.15
2023-02-13T13:19:25.366Z,25.92
2023-02-13T13:22:10.638Z,27.25
2023-02-13T13:24:55.927Z,23.63
2023-02-13T13:27:34.705Z,24.75
2023-02-13T13:30:22.673Z,21.65
2023-02-13T13:32:52.428Z,32.60
2023-02-13T13:35:19.910Z,25.65
2023-02-13T13:38:02.686Z,28.08
2023-02-13T13:40:32.419Z,25.75
2023-02-13T13:43:18.601Z,24.10
2023-02-13T13:46:03.794Z,23.75
2023-02-13T13:48:59.010Z,30.27
2023-02-13T13:51:25.772Z,32.75
2023-02-13T13:54:07.628Z,24.10
2023-02-13T13:57:03.883Z,22.08
2023-02-13T13:59:33.756Z,25.60
2023-02-13T14:02:20.474Z,23.95
2023-02-13T14:05:17.732Z,24.90
2023-02-13T14:07:44.669Z,22.25
2023-02-13T14:10:26.682Z,25.02
2023-02-13T14:12:56.347Z,22.63
2023-02-13T14:15:38.036Z,23.52
2023-02-13T14:18:08.021Z,19.42
2023-02-13T14:20:37.870Z,19.73
2023-02-13T14:23:08.917Z,32.33
2023-02-13T14:25:35.721Z,22.83
2023-02-13T14:28:03.761Z,20.70
2023-02-13T14:30:34.109Z,19.90
2023-02-13T14:33:02.813Z,22.70
2023-02-13T14:35:31.265Z,22.17
2023-02-13T14:37:59.537Z,18.70
2023-02-13T14:40:49.792Z,19.77
2023-02-13T14:43:20.521Z,21.63
2023-02-13T14:45:59.578Z,22.20
2023-02-13T14:48:51.468Z,18.40
2023-02-13T14:51:28.581Z,19.20
2023-02-13T14:53:58.882Z,21.60
2023-02-13T14:56:25.627Z,23.60
2023-02-13T14:59:06.884Z,20.85
2023-02-13T15:01:35.152Z,24.05
2023-02-13T15:04:20.691Z,24.90
2023-02-13T15:06:47.470Z,20.85
2023-02-13T15:09:32.383Z,23.67
2023-02-13T15:11:59.282Z,22.75
2023-02-13T15:14:32.057Z,32.50
2023-02-13T15:17:06.076Z,21.75
2023-02-13T15:19:33.685Z,24.45
2023-02-13T15:22:01.478Z,25.95
2023-02-13T15:24:32.028Z,24.40
2023-02-13T15:27:01.452Z,21.75
2023-02-13T15:29:37.903Z,23.98
2023-02-13T15:32:21.674Z,17.75
2023-02-13T15:34:48.773Z,20.38
2023-02-13T15:37:27.435Z,18.88
2023-02-13T15:39:54.087Z,22.15
2023-02-13T15:42:20.861Z,23.50
2023-02-13T15:44:49.050Z,33.42
2023-02-13T15:47:26.460Z,18.95
2023-02-13T15:49:53.404Z,25.27
2023-02-13T15:52:32.772Z,19.52
2023-02-13T15:54:59.672Z,22.85
2023-02-13T15:57:26.963Z,20.33
2023-02-13T15:59:54.937Z,25.73
2023-02-13T16:02:40.656Z,21.58
2023-02-13T16:05:07.539Z,25.38
2023-02-13T16:07:57.622Z,20.40
2023-02-13T16:10:34.752Z,24.17
2023-02-13T16:13:05.994Z,24.95
2023-02-13T16:15:34.397Z,26.20
2023-02-13T16:18:01.189Z,24.77
2023-02-13T16:20:28.689Z,21.63
2023-02-13T16:23:00.149Z,27.70
2023-02-13T16:25:32.943Z,21.83
2023-02-13T16:28:01.529Z,23.77
2023-02-13T16:30:35.411Z,26.45
2023-02-13T16:33:17.180Z,26.27
2023-02-13T16:35:50.850Z,28.27
2023-02-13T16:38:24.666Z,33.33
2023-02-13T16:43:39.828Z,33.90
2023-02-13T16:46:13.483Z,40.55
2023-02-13T16:48:40.291Z,30.77
2023-02-13T16:51:07.104Z,28.73
2023-02-13T16:53:34.788Z,31.77
2023-02-13T16:56:02.882Z,30.65
2023-02-13T16:58:29.601Z,27.15
2023-02-13T17:00:56.601Z,29.58
2023-02-13T17:03:23.476Z,28.95
2023-02-13T17:05:50.159Z,27.30
2023-02-13T17:08:16.918Z,35.28
2023-02-13T17:10:43.901Z,29.25
2023-02-13T17:13:11.568Z,32.95
2023-02-13T17:15:38.480Z,28.40
2023-02-13T17:18:05.232Z,29.45
2023-02-13T17:20:33.422Z,33.92
2023-02-13T17:23:01.564Z,33.88
2023-02-13T17:25:30.201Z,30.02
2023-02-13T17:27:58.825Z,30.73
2023-02-13T17:30:27.592Z,28.33
2023-02-13T17:33:00.023Z,37.65
2023-02-13T17:35:26.762Z,31.80
2023-02-13T17:37:53.543Z,32.75
2023-02-13T17:40:21.959Z,33.75
2023-02-13T17:42:51.790Z,33.08
2023-02-13T17:45:19.664Z,33.78
2023-02-13T17:47:46.408Z,32.63
2023-02-13T17:50:13.652Z,29.00
2023-02-13T17:52:40.584Z,34.45
2023-02-13T17:55:24.534Z,36.83
2023-02-13T17:57:51.793Z,34.97
2023-02-13T18:00:20.372Z,29.73
2023-02-13T18:02:50.610Z,38.47
2023-02-13T18:05:17.952Z,33.72
2023-02-13T18:07:45.051Z,36.70
2023-02-13T18:10:19.747Z,39.83
2023-02-13T18:12:46.643Z,33.47
2023-02-13T18:15:13.370Z,40.22
2023-02-13T18:17:40.492Z,32.83
2023-02-13T18:20:07.918Z,34.53
2023-02-13T18:22:34.625Z,37.75
2023-02-13T18:25:02.110Z,34.58
2023-02-13T18:27:28.857Z,34.22
2023-02-13T18:29:56.254Z,36.97
2023-02-13T18:32:23.107Z,44.22
2023-02-13T18:34:50.191Z,48.88
2023-02-13T18:37:18.039Z,50.50
2023-02-13T18:39:44.741Z,45.80
2023-02-13T18:42:13.146Z,44.67
2023-02-13T18:44:40.626Z,44.50
2023-02-13T18:47:07.548Z,40.20
2023-02-13T18:49:34.252Z,37.90
2023-02-13T18:52:02.257Z,38.78
2023-02-13T18:54:29.167Z,48.88
2023-02-13T18:56:55.877Z,38.22
2023-02-13T18:59:23.218Z,36.85
2023-02-13T19:01:50.331Z,37.60
2023-02-13T19:04:17.033Z,39.95
2023-02-13T19:06:43.857Z,45.00
2023-02-13T19:09:10.721Z,36.85
2023-02-13T19:11:38.876Z,35.58
2023-02-13T19:14:05.713Z,40.45
2023-02-13T19:16:33.173Z,42.30
2023-02-13T19:19:02.595Z,44.33
2023-02-13T19:21:31.080Z,44.63
2023-02-13T19:23:57.872Z,49.85
2023-02-13T19:26:25.758Z,45.22
2023-02-13T19:28:52.650Z,45.90
2023-02-13T19:31:23.596Z,39.38
2023-02-13T19:33:50.545Z,40.40
2023-02-13T19:36:19.966Z,43.80
2023-02-13T19:38:47.058Z,41.03
2023-02-13T19:41:15.595Z,40.30
2023-02-13T19:43:42.298Z,36.17
2023-02-13T19:46:10.409Z,40.83
2023-02-13T19:48:37.505Z,42.28
2023-02-13T19:51:11.681Z,44.70
2023-02-13T19:53:38.671Z,38.53
2023-02-13T19:56:06.258Z,42.38
2023-02-13T19:58:33.183Z,44.38
2023-02-13T20:01:10.094Z,42.08
2023-02-13T20:03:36.865Z,36.95
2023-02-13T20:06:08.929Z,38.38
2023-02-13T20:08:35.774Z,34.42
2023-02-13T20:11:02.775Z,39.80
2023-02-13T20:13:29.614Z,45.35
2023-02-13T20:15:56.408Z,44.10
2023-02-13T20:18:23.297Z,38.47
2023-02-13T20:20:51.687Z,38.63
2023-02-13T20:23:18.620Z,33.50
2023-02-13T20:25:45.397Z,37.22
2023-02-13T20:28:12.396Z,37.15
2023-02-13T20:30:42.853Z,34.95
2023-02-13T20:33:09.892Z,38.33
2023-02-13T20:35:36.806Z,37.97
2023-02-13T20:38:04.111Z,36.83
2023-02-13T20:40:30.911Z,36.28
2023-02-13T20:43:01.875Z,38.22
2023-02-13T20:45:28.681Z,37.25
2023-02-13T20:47:55.523Z,40.88
2023-02-13T20:50:22.378Z,34.97
2023-02-13T20:52:49.125Z,33.47
2023-02-13T20:55:15.952Z,32.97
2023-02-13T20:57:45.279Z,49.28
2023-02-13T21:00:13.251Z,41.38
2023-02-13T21:02:39.984Z,29.75
2023-02-13T21:05:06.992Z,36.83
2023-02-13T21:07:33.792Z,41.55
2023-02-13T21:10:00.492Z,37.13
2023-02-13T21:12:27.430Z,32.15
2023-02-13T21:14:54.229Z,39.67
2023-02-13T21:17:21.055Z,35.78
2023-02-13T21:19:48.015Z,36.75
2023-02-13T21:22:14.922Z,35.78
2023-02-13T21:24:42.673Z,39.00
2023-02-13T21:27:10.323Z,37.45
2023-02-13T21:29:38.177Z,35.00
2023-02-13T21:32:05.103Z,38.95
2023-02-13T21:34:31.920Z,38.55
2023-02-13T21:36:58.654Z,38.55
2023-02-13T21:39:25.659Z,36.33
2023-02-13T21:41:52.478Z,36.20
2023-02-13T21:44:19.252Z,38.22
2023-02-13T21:46:46.287Z,41.55
2023-02-13T21:49:15.350Z,39.47
2023-02-13T21:51:42.269Z,56.33
2023-02-13T21:54:09.530Z,43.83
2023-02-13T21:56:38.012Z,40.90
2023-02-13T21:59:05.253Z,36.35
2023-02-13T22:01:38.630Z,42.28
2023-02-13T22:04:06.748Z,40.33
2023-02-13T22:06:34.811Z,37.22
2023-02-13T22:09:09.515Z,44.35
2023-02-13T22:11:36.261Z,39.10
2023-02-13T22:14:04.223Z,38.03
2023-02-13T22:16:33.980Z,38.65
2023-02-13T22:19:00.810Z,37.25
2023-02-13T22:21:28.739Z,42.15
2023-02-13T22:23:55.634Z,37.75
2023-02-13T22:26:25.549Z,33.42
2023-02-13T22:28:52.632Z,48.92
2023-02-13T22:31:19.755Z,44.08
2023-02-13T22:33:52.373Z,40.47
2023-02-13T22:36:25.322Z,48.13
2023-02-13T22:38:56.313Z,37.83
2023-02-13T22:41:24.205Z,37.38
2023-02-13T22:43:51.377Z,35.25
2023-02-13T22:46:20.472Z,36.58
2023-02-13T22:48:52.363Z,37.63
2023-02-13T22:51:26.715Z,43.35
2023-02-13T22:53:54.496Z,39.45
2023-02-13T22:56:24.450Z,44.83
2023-02-13T22:58:51.350Z,37.58
2023-02-13T23:01:20.216Z,41.20
2023-02-13T23:03:47.266Z,43.15
2023-02-13T23:06:18.010Z,41.90
2023-02-13T23:08:44.819Z,34.90
2023-02-13T23:11:34.255Z,39.28
2023-02-13T23:14:01.399Z,44.25
2023-02-13T23:16:54.587Z,39.10
2023-02-13T23:19:22.042Z,46.40
2023-02-13T23:21:49.044Z,35.38
2023-02-13T23:24:15.955Z,39.55
2023-02-13T23:26:42.847Z,39.75
2023-02-13T23:29:09.659Z,37.15
2023-02-13T23:31:36.484Z,39.08
2023-02-13T23:34:03.429Z,40.83
2023-02-13T23:36:30.112Z,41.47
2023-02-13T23:38:56.812Z,39.42
2023-02-13T23:41:23.475Z,43.65
2023-02-13T23:43:50.165Z,39.50
2023-02-13T23:46:16.942Z,41.05
2023-02-13T23:48:43.638Z,41.22
2023-02-13T23:51:10.561Z,36.08
2023-02-13T23:53:37.482Z,45.63
2023-02-13T23:56:05.072Z,40.22
2023-02-13T23:58:31.872Z,41.38
